createdAt,value
2022-09-30T00:02:06.834Z,98276.60
2022-09-30T00:04:42.772Z,98277.41
2022-09-30T00:07:10.758Z,98278.11
2022-09-30T00:09:41.433Z,98274.19
2022-09-30T00:12:14.048Z,98273.98
2022-09-30T00:14:41.813Z,98272.90
2022-09-30T00:17:09.995Z,98276.16
2022-09-30T00:19:37.989Z,98276.21
2022-09-30T00:22:11.416Z,98273.09
2022-09-30T00:24:39.714Z,98269.95
2022-09-30T00:27:10.030Z,98272.06
2022-09-30T00:29:37.963Z,98270.13
2022-09-30T00:32:05.885Z,98275.73
2022-09-30T00:34:37.761Z,98278.14
2022-09-30T00:37:06.222Z,98275.90
2022-09-30T00:39:39.171Z,98269.34
2022-09-30T00:42:14.396Z,98269.10
2022-09-30T00:44:46.407Z,98280.20
2022-09-30T00:47:24.891Z,98285.21
2022-09-30T00:49:56.151Z,98293.52
2022-09-30T00:52:24.751Z,98289.68
2022-09-30T00:54:57.630Z,98275.20
2022-09-30T00:57:26.539Z,98272.41
2022-09-30T00:59:54.945Z,98268.37
2022-09-30T01:02:25.551Z,98258.05
2022-09-30T01:04:54.963Z,98254.61
2022-09-30T01:07:28.335Z,98255.85
2022-09-30T01:10:01.292Z,98256.47
2022-09-30T01:12:30.211Z,98257.81
2022-09-30T01:15:05.142Z,98261.27
2022-09-30T01:18:02.672Z,98261.89
2022-09-30T01:20:44.803Z,98259.03
2022-09-30T01:23:27.989Z,98255.77
2022-09-30T01:26:31.059Z,98255.60
2022-09-30T01:29:26.793Z,98257.71
2022-09-30T01:32:32.562Z,98256.56
2022-09-30T01:35:11.210Z,98262.79
2022-09-30T01:38:17.844Z,98274.84
2022-09-30T01:41:14.286Z,98273.75
2022-09-30T01:44:03.287Z,98275.02
2022-09-30T01:46:44.797Z,98287.30
2022-09-30T01:49:28.577Z,98296.89
2022-09-30T01:51:56.424Z,98306.05
2022-09-30T01:54:57.451Z,98302.05
2022-09-30T01:57:37.744Z,98287.90
2022-09-30T02:00:15.434Z,98278.86
2022-09-30T02:02:55.085Z,98264.95
2022-09-30T02:05:31.962Z,98252.76
2022-09-30T02:08:09.611Z,98248.52
2022-09-30T02:10:48.696Z,98249.97
2022-09-30T02:13:25.236Z,98257.33
2022-09-30T02:15:59.907Z,98256.27
2022-09-30T02:18:35.182Z,98259.48
2022-09-30T02:21:06.986Z,98265.09
2022-09-30T02:23:42.626Z,98266.32
2022-09-30T02:26:25.405Z,98265.36
2022-09-30T02:29:13.476Z,98267.64
2022-09-30T02:31:45.452Z,98265.02
2022-09-30T02:34:22.584Z,98277.73
2022-09-30T02:37:32.072Z,98286.54
2022-09-30T02:40:21.450Z,98295.75
2022-09-30T02:42:53.503Z,98303.64
2022-09-30T02:45:25.772Z,98301.98
2022-09-30T02:48:15.449Z,98302.44
2022-09-30T02:50:52.225Z,98305.48
2022-09-30T02:53:26.019Z,98308.19
2022-09-30T02:56:12.504Z,98298.81
2022-09-30T02:58:46.451Z,98304.16
2022-09-30T03:01:19.116Z,98304.69
2022-09-30T03:04:02.001Z,98301.22
2022-09-30T03:06:34.201Z,98298.11
2022-09-30T03:09:05.619Z,98303.01
2022-09-30T03:11:37.429Z,98307.12
2022-09-30T03:14:35.382Z,98304.10
2022-09-30T03:17:41.990Z,98303.27
2022-09-30T03:20:42.047Z,98310.05
2022-09-30T03:23:44.487Z,98312.30
2022-09-30T03:26:44.116Z,98318.65
2022-09-30T03:29:25.087Z,98322.95
2022-09-30T03:32:00.443Z,98324.83
2022-09-30T03:35:03.676Z,98327.94
2022-09-30T03:37:58.692Z,98327.62
2022-09-30T03:40:56.243Z,98325.45
2022-09-30T03:43:51.453Z,98323.97
2022-09-30T03:46:31.677Z,98320.42
2022-09-30T03:49:08.665Z,98316.09
2022-09-30T03:51:44.483Z,98321.89
2022-09-30T03:54:17.115Z,98319.67
2022-09-30T03:56:46.132Z,98317.52
2022-09-30T03:59:30.809Z,98318.70
2022-09-30T04:01:58.811Z,98318.55
2022-09-30T04:04:30.290Z,98324.00
2022-09-30T04:06:59.281Z,98326.36
2022-09-30T04:09:29.168Z,98327.79
2022-09-30T04:11:57.327Z,98327.59
2022-09-30T04:14:25.247Z,98328.66
2022-09-30T04:16:54.189Z,98333.50
2022-09-30T04:19:22.027Z,98333.70
2022-09-30T04:21:55.123Z,98335.26
2022-09-30T04:24:24.607Z,98336.88
2022-09-30T04:26:52.636Z,98332.59
2022-09-30T04:29:23.238Z,98336.83
2022-09-30T04:31:54.019Z,98342.80
2022-09-30T04:34:23.229Z,98344.11
2022-09-30T04:36:57.861Z,98346.98
2022-09-30T04:39:25.826Z,98346.02
2022-09-30T04:41:57.995Z,98342.90
2022-09-30T04:44:28.082Z,98350.19
2022-09-30T04:46:55.741Z,98357.92
2022-09-30T04:49:27.600Z,98357.81
2022-09-30T04:51:59.603Z,98363.23
2022-09-30T04:54:27.507Z,98360.98
2022-09-30T04:56:56.006Z,98353.44
2022-09-30T04:59:23.803Z,98354.80
2022-09-30T05:01:54.575Z,98354.94
2022-09-30T05:04:23.242Z,98349.42
2022-09-30T05:06:52.313Z,98357.30
2022-09-30T05:09:20.905Z,98369.09
2022-09-30T05:11:52.751Z,98368.64
2022-09-30T05:14:23.434Z,98367.11
2022-09-30T05:16:51.297Z,98360.36
2022-09-30T05:19:21.018Z,98354.75
2022-09-30T05:21:48.837Z,98361.33
2022-09-30T05:24:23.039Z,98360.19
2022-09-30T05:26:54.911Z,98362.06
2022-09-30T05:29:22.950Z,98359.88
2022-09-30T05:31:52.067Z,98359.84
2022-09-30T05:34:21.516Z,98357.10
2022-09-30T05:36:50.829Z,98359.04
2022-09-30T05:39:18.879Z,98362.31
2022-09-30T05:41:50.737Z,98366.88
2022-09-30T05:44:21.789Z,98371.98
2022-09-30T05:46:49.860Z,98378.38
2022-09-30T05:49:20.338Z,98380.80
2022-09-30T05:51:48.532Z,98382.91
2022-09-30T05:54:16.443Z,98380.44
2022-09-30T05:56:46.947Z,98379.42
2022-09-30T05:59:17.456Z,98381.88
2022-09-30T06:01:49.761Z,98380.80
2022-09-30T06:04:21.967Z,98384.98
2022-09-30T06:06:50.045Z,98391.11
2022-09-30T06:09:22.343Z,98387.92
2022-09-30T06:11:50.299Z,98390.40
2022-09-30T06:14:23.874Z,98391.64
2022-09-30T06:16:51.793Z,98392.85
2022-09-30T06:19:24.079Z,98388.25
2022-09-30T06:21:52.007Z,98389.56
2022-09-30T06:24:24.914Z,98387.34
2022-09-30T06:26:53.101Z,98383.69
2022-09-30T06:29:23.500Z,98385.10
2022-09-30T06:31:55.551Z,98386.18
2022-09-30T06:34:27.233Z,98389.80
2022-09-30T06:36:55.189Z,98392.90
2022-09-30T06:39:23.099Z,98388.41
2022-09-30T06:41:51.500Z,98384.29
2022-09-30T06:44:19.386Z,98391.33
2022-09-30T06:46:53.626Z,98388.07
2022-09-30T06:49:24.010Z,98387.10
2022-09-30T06:51:52.671Z,98383.84
2022-09-30T06:54:23.191Z,98375.98
2022-09-30T06:56:53.869Z,98375.67
2022-09-30T06:59:23.428Z,98372.41
2022-09-30T07:01:57.210Z,98376.27
2022-09-30T07:04:26.273Z,98374.14
2022-09-30T07:06:59.423Z,98376.09
2022-09-30T07:09:27.561Z,98375.58
2022-09-30T07:11:59.087Z,98372.55
2022-09-30T07:14:34.412Z,98377.77
2022-09-30T07:17:08.655Z,98373.98
2022-09-30T07:19:36.409Z,98378.72
2022-09-30T07:22:22.998Z,98381.82
2022-09-30T07:24:58.380Z,98379.75
2022-09-30T07:27:32.676Z,98379.73
2022-09-30T07:30:09.528Z,98375.97
2022-09-30T07:32:46.444Z,98378.20
2022-09-30T07:35:14.805Z,98380.30
2022-09-30T07:37:50.335Z,98382.58
2022-09-30T07:40:18.368Z,98385.82
2022-09-30T07:42:48.877Z,98384.42
2022-09-30T07:45:23.579Z,98381.70
2022-09-30T07:47:56.169Z,98386.23
2022-09-30T07:50:24.194Z,98379.61
2022-09-30T07:52:57.528Z,98381.65
2022-09-30T07:55:25.458Z,98378.59
2022-09-30T07:57:54.385Z,98380.89
2022-09-30T08:00:41.679Z,98386.20
2022-09-30T08:03:11.446Z,98385.51
2022-09-30T08:05:52.770Z,98391.58
2022-09-30T08:08:20.577Z,98397.92
2022-09-30T08:10:52.513Z,98394.05
2022-09-30T08:13:22.833Z,98390.90
2022-09-30T08:15:50.742Z,98391.35
2022-09-30T08:18:25.512Z,98386.65
2022-09-30T08:20:57.843Z,98385.19
2022-09-30T08:23:32.201Z,98384.76
2022-09-30T08:26:08.783Z,98388.33
2022-09-30T08:28:41.401Z,98393.42
2022-09-30T08:31:19.764Z,98392.63
2022-09-30T08:33:48.919Z,98395.71
2022-09-30T08:36:27.231Z,98399.61
2022-09-30T08:38:55.183Z,98401.28
2022-09-30T08:41:43.950Z,98401.20
2022-09-30T08:44:33.220Z,98399.06
2022-09-30T08:47:48.232Z,98402.27
2022-09-30T08:50:31.463Z,98403.12
2022-09-30T08:53:08.978Z,98408.20
2022-09-30T08:55:45.649Z,98406.35
2022-09-30T08:58:31.923Z,98406.51
2022-09-30T09:01:37.346Z,98409.08
2022-09-30T09:04:09.072Z,98410.96
2022-09-30T09:07:12.012Z,98403.45
2022-09-30T09:09:59.967Z,98397.87
2022-09-30T09:13:05.462Z,98403.43
2022-09-30T09:15:42.456Z,98403.64
2022-09-30T09:18:34.863Z,98409.54
2022-09-30T09:21:26.265Z,98414.84
2022-09-30T09:24:01.205Z,98422.61
2022-09-30T09:26:38.990Z,98412.66
2022-09-30T09:29:15.632Z,98413.50
2022-09-30T09:31:43.817Z,98409.88
2022-09-30T09:34:20.026Z,98409.82
2022-09-30T09:37:18.989Z,98408.98
2022-09-30T09:40:04.731Z,98415.48
2022-09-30T09:42:56.607Z,98413.48
2022-09-30T09:46:13.594Z,98412.94
2022-09-30T09:48:41.369Z,98410.69
2022-09-30T09:51:38.753Z,98410.34
2022-09-30T09:54:16.922Z,98409.10
2022-09-30T09:56:44.776Z,98412.78
2022-09-30T09:59:22.309Z,98415.90
2022-09-30T10:01:56.457Z,98420.80
2022-09-30T10:04:33.221Z,98424.96
2022-09-30T10:07:19.069Z,98433.42
2022-09-30T10:09:47.061Z,98438.01
2022-09-30T10:12:14.933Z,98442.47
2022-09-30T10:15:03.963Z,98436.06
2022-09-30T10:17:37.814Z,98432.61
2022-09-30T10:20:27.771Z,98432.88
2022-09-30T10:23:22.548Z,98439.66
2022-09-30T10:26:08.467Z,98440.33
2022-09-30T10:28:46.999Z,98436.73
2022-09-30T10:31:23.884Z,98432.14
2022-09-30T10:34:23.578Z,98435.61
2022-09-30T10:36:57.466Z,98439.05
2022-09-30T10:39:40.367Z,98435.73
2022-09-30T10:42:29.539Z,98425.40
2022-09-30T10:45:14.206Z,98423.41
2022-09-30T10:47:52.291Z,98425.16
2022-09-30T10:50:27.847Z,98419.11
2022-09-30T10:53:14.350Z,98418.54
2022-09-30T10:55:47.542Z,98416.18
2022-09-30T10:58:52.507Z,98411.35
2022-09-30T11:01:26.512Z,98408.39
2022-09-30T11:04:06.317Z,98400.78
2022-09-30T11:06:44.148Z,98401.41
2022-09-30T11:09:26.214Z,98403.16
2022-09-30T11:12:05.531Z,98401.52
2022-09-30T11:14:46.035Z,98397.10
2022-09-30T11:17:42.908Z,98400.52
2022-09-30T11:20:33.431Z,98394.38
2022-09-30T11:23:10.247Z,98394.73
2022-09-30T11:26:07.928Z,98396.89
2022-09-30T11:29:12.948Z,98399.14
2022-09-30T11:32:18.114Z,98398.98
2022-09-30T11:35:07.561Z,98394.73
2022-09-30T11:37:47.761Z,98390.69
2022-09-30T11:40:39.032Z,98382.80
2022-09-30T11:43:25.606Z,98375.00
2022-09-30T11:46:19.201Z,98380.98
2022-09-30T11:49:28.321Z,98385.02
2022-09-30T11:52:14.889Z,98384.24
2022-09-30T11:55:32.016Z,98385.70
2022-09-30T11:58:36.217Z,98383.85
2022-09-30T12:01:21.859Z,98386.90
2022-09-30T12:04:10.362Z,98389.43
2022-09-30T12:06:57.879Z,98385.92
2022-09-30T12:09:46.508Z,98381.33
2022-09-30T12:12:20.993Z,98379.88
2022-09-30T12:15:07.659Z,98381.20
2022-09-30T12:17:51.114Z,98380.55
2022-09-30T12:20:32.373Z,98384.17
2022-09-30T12:23:30.570Z,98387.96
2022-09-30T12:26:07.591Z,98384.08
2022-09-30T12:29:05.781Z,98386.66
2022-09-30T12:32:01.374Z,98377.57
2022-09-30T12:34:52.582Z,98372.32
2022-09-30T12:37:56.336Z,98367.64
2022-09-30T12:40:57.709Z,98369.08
2022-09-30T12:44:06.223Z,98375.67
2022-09-30T12:47:08.346Z,98376.89
2022-09-30T12:49:42.282Z,98376.85
2022-09-30T12:52:21.574Z,98380.84
2022-09-30T12:54:52.441Z,98380.77
2022-09-30T12:57:26.595Z,98377.27
2022-09-30T12:59:58.160Z,98378.15
2022-09-30T13:02:36.605Z,98380.05
2022-09-30T13:05:27.846Z,98377.11
2022-09-30T13:08:05.334Z,98384.33
2022-09-30T13:10:40.101Z,98386.13
2022-09-30T13:13:10.532Z,98389.91
2022-09-30T13:15:46.702Z,98391.98
2022-09-30T13:18:20.809Z,98394.38
2022-09-30T13:21:08.299Z,98397.25
2022-09-30T13:23:53.302Z,98393.59
2022-09-30T13:26:32.134Z,98395.66
2022-09-30T13:29:04.320Z,98397.11
2022-09-30T13:31:46.299Z,98398.63
2022-09-30T13:34:35.588Z,98391.94
2022-09-30T13:37:06.403Z,98392.56
2022-09-30T13:39:34.247Z,98395.38
2022-09-30T13:42:22.306Z,98392.98
2022-09-30T13:45:08.546Z,98393.42
2022-09-30T13:48:02.464Z,98389.97
2022-09-30T13:50:34.602Z,98385.77
2022-09-30T13:53:13.130Z,98387.41
2022-09-30T13:55:51.117Z,98383.73
2022-09-30T13:58:30.971Z,98378.86
2022-09-30T14:01:19.357Z,98378.08
2022-09-30T14:03:51.159Z,98384.24
2022-09-30T14:06:54.496Z,98386.85
2022-09-30T14:10:08.382Z,98384.95
2022-09-30T14:12:48.882Z,98393.14
2022-09-30T14:15:40.593Z,98392.88
2022-09-30T14:18:48.344Z,98393.46
2022-09-30T14:21:48.423Z,98396.20
2022-09-30T14:24:24.793Z,98394.19
2022-09-30T14:27:00.251Z,98394.06
2022-09-30T14:29:59.394Z,98397.23
2022-09-30T14:32:30.576Z,98395.20
2022-09-30T14:35:06.431Z,98398.68
2022-09-30T14:37:51.666Z,98393.14
2022-09-30T14:40:32.079Z,98395.27
2022-09-30T14:43:18.318Z,98396.02
2022-09-30T14:45:54.147Z,98402.73
2022-09-30T14:48:31.920Z,98403.46
2022-09-30T14:51:22.705Z,98404.10
2022-09-30T14:54:04.492Z,98409.09
2022-09-30T14:56:41.977Z,98408.08
2022-09-30T14:59:20.692Z,98410.27
2022-09-30T15:02:04.116Z,98414.01
2022-09-30T15:04:43.336Z,98414.80
2022-09-30T15:07:16.188Z,98412.74
2022-09-30T15:09:50.278Z,98411.00
2022-09-30T15:12:28.729Z,98417.17
2022-09-30T15:15:01.765Z,98414.35
2022-09-30T15:17:37.717Z,98418.37
2022-09-30T15:20:24.277Z,98421.55
2022-09-30T15:22:56.601Z,98423.64
2022-09-30T15:25:29.692Z,98424.20
2022-09-30T15:28:02.065Z,98424.50
2022-09-30T15:30:29.951Z,98424.48
2022-09-30T15:33:07.577Z,98422.67
2022-09-30T15:35:35.562Z,98426.42
2022-09-30T15:38:17.471Z,98423.73
2022-09-30T15:41:03.337Z,98428.52
2022-09-30T15:43:51.719Z,98434.89
2022-09-30T15:46:28.488Z,98443.55
2022-09-30T15:49:31.457Z,98455.67
2022-09-30T15:52:40.539Z,98464.49
2022-09-30T15:55:36.371Z,98464.85
2022-09-30T15:58:26.956Z,98471.36
2022-09-30T16:01:19.574Z,98476.39
2022-09-30T16:03:59.484Z,98477.55
2022-09-30T16:06:36.507Z,98480.52
2022-09-30T16:09:34.081Z,98493.20
2022-09-30T16:12:13.676Z,98492.80
2022-09-30T16:14:58.095Z,98492.90
2022-09-30T16:17:29.188Z,98496.02
2022-09-30T16:20:25.892Z,98505.03
2022-09-30T16:23:01.651Z,98511.64
2022-09-30T16:25:35.131Z,98510.30
2022-09-30T16:28:14.540Z,98516.20
2022-09-30T16:30:51.865Z,98512.02
2022-09-30T16:33:24.067Z,98517.81
2022-09-30T16:35:56.132Z,98523.61
2022-09-30T16:38:24.068Z,98525.35
2022-09-30T16:40:51.808Z,98527.06
2022-09-30T16:43:27.674Z,98525.66
2022-09-30T16:46:02.378Z,98532.15
2022-09-30T16:48:30.148Z,98538.41
2022-09-30T16:51:20.827Z,98540.03
2022-09-30T16:53:48.597Z,98540.48
2022-09-30T16:56:25.039Z,98546.61
2022-09-30T16:58:53.051Z,98553.59
2022-09-30T17:01:28.677Z,98566.71
2022-09-30T17:04:01.745Z,98574.29
2022-09-30T17:06:36.060Z,98581.11
2022-09-30T17:09:08.981Z,98581.67
2022-09-30T17:11:42.187Z,98589.08
2022-09-30T17:14:09.868Z,98593.44
2022-09-30T17:16:42.409Z,98596.39
2022-09-30T17:19:12.776Z,98599.83
2022-09-30T17:21:40.715Z,98605.85
2022-09-30T17:24:08.685Z,98608.05
2022-09-30T17:26:43.571Z,98610.52
2022-09-30T17:29:33.067Z,98619.04
2022-09-30T17:32:08.123Z,98622.50
2022-09-30T17:34:35.890Z,98622.44
2022-09-30T17:37:03.707Z,98622.60
2022-09-30T17:39:32.204Z,98624.35
2022-09-30T17:42:22.726Z,98632.70
2022-09-30T17:44:55.564Z,98639.04
2022-09-30T17:47:28.139Z,98638.98
2022-09-30T17:49:56.251Z,98647.61
2022-09-30T17:52:38.530Z,98640.71
2022-09-30T17:55:06.677Z,98640.16
2022-09-30T17:57:39.977Z,98644.27
2022-09-30T18:00:12.712Z,98646.37
2022-09-30T18:02:42.802Z,98648.63
2022-09-30T18:05:14.895Z,98655.55
2022-09-30T18:07:43.253Z,98659.96
2022-09-30T18:10:15.490Z,98664.41
2022-09-30T18:12:43.176Z,98677.94
2022-09-30T18:15:14.024Z,98682.19
2022-09-30T18:17:46.052Z,98689.96
2022-09-30T18:20:20.716Z,98697.56
2022-09-30T18:22:55.406Z,98700.73
2022-09-30T18:25:27.718Z,98703.23
2022-09-30T18:28:03.229Z,98713.31
2022-09-30T18:30:31.201Z,98718.77
2022-09-30T18:33:07.266Z,98724.04
2022-09-30T18:35:40.027Z,98727.81
2022-09-30T18:38:07.768Z,98733.81
2022-09-30T18:40:36.361Z,98739.39
2022-09-30T18:43:06.710Z,98747.20
2022-09-30T18:45:40.320Z,98746.05
2022-09-30T18:48:12.158Z,98746.93
2022-09-30T18:50:40.212Z,98743.70
2022-09-30T18:53:13.006Z,98741.18
2022-09-30T18:55:48.147Z,98742.59
2022-09-30T18:58:18.303Z,98739.98
2022-09-30T19:00:47.036Z,98739.35
2022-09-30T19:03:23.274Z,98740.10
2022-09-30T19:05:50.906Z,98744.55
2022-09-30T19:08:18.816Z,98749.60
2022-09-30T19:10:54.744Z,98749.45
2022-09-30T19:13:29.375Z,98754.92
2022-09-30T19:16:06.521Z,98757.82
2022-09-30T19:18:38.673Z,98757.67
2022-09-30T19:21:13.271Z,98756.97
2022-09-30T19:23:48.440Z,98757.95
2022-09-30T19:26:16.196Z,98761.17
2022-09-30T19:28:46.551Z,98760.24
2022-09-30T19:31:21.673Z,98764.86
2022-09-30T19:33:57.138Z,98761.31
2022-09-30T19:36:31.896Z,98763.38
2022-09-30T19:39:12.362Z,98760.31
2022-09-30T19:41:44.632Z,98761.48
2022-09-30T19:44:20.863Z,98762.95
2022-09-30T19:46:54.947Z,98765.77
2022-09-30T19:49:27.921Z,98766.42
2022-09-30T19:51:55.788Z,98764.59
2022-09-30T19:54:39.772Z,98765.94
2022-09-30T19:57:17.486Z,98768.89
2022-09-30T19:59:45.500Z,98770.42
2022-09-30T20:02:17.284Z,98770.23
2022-09-30T20:04:48.885Z,98767.85
2022-09-30T20:07:16.601Z,98770.58
2022-09-30T20:09:48.777Z,98767.02
2022-09-30T20:12:16.680Z,98771.42
2022-09-30T20:15:07.485Z,98777.13
2022-09-30T20:17:41.917Z,98779.46
2022-09-30T20:20:28.472Z,98782.32
2022-09-30T20:23:06.026Z,98783.59
2022-09-30T20:25:39.423Z,98786.81
2022-09-30T20:28:11.730Z,98783.52
2022-09-30T20:30:47.983Z,98785.35
2022-09-30T20:33:24.639Z,98781.95
2022-09-30T20:35:59.321Z,98783.80
2022-09-30T20:38:27.261Z,98782.73
2022-09-30T20:41:03.517Z,98778.27
2022-09-30T20:43:36.754Z,98782.79
2022-09-30T20:46:09.960Z,98779.09
2022-09-30T20:48:42.688Z,98780.59
2022-09-30T20:51:20.232Z,98783.17
2022-09-30T20:53:56.932Z,98786.83
2022-09-30T20:56:39.308Z,98788.88
2022-09-30T20:59:20.842Z,98785.46
2022-09-30T21:01:48.624Z,98780.90
2022-09-30T21:04:19.277Z,98780.13
2022-09-30T21:06:48.034Z,98779.20
2022-09-30T21:09:17.945Z,98779.98
2022-09-30T21:11:45.919Z,98776.42
2022-09-30T21:14:20.904Z,98781.81
2022-09-30T21:16:48.672Z,98790.86
2022-09-30T21:19:25.759Z,98793.13
2022-09-30T21:22:00.036Z,98786.46
2022-09-30T21:24:28.593Z,98783.58
2022-09-30T21:26:56.522Z,98780.11
2022-09-30T21:29:24.427Z,98774.98
2022-09-30T21:31:53.069Z,98770.97
2022-09-30T21:34:22.390Z,98774.29
2022-09-30T21:36:50.203Z,98773.96
2022-09-30T21:39:17.932Z,98777.45
2022-09-30T21:41:47.260Z,98772.84
2022-09-30T21:44:16.461Z,98769.72
2022-09-30T21:46:48.636Z,98770.58
2022-09-30T21:49:17.872Z,98766.75
2022-09-30T21:51:50.693Z,98767.33
2022-09-30T21:54:21.251Z,98771.07
2022-09-30T21:56:50.804Z,98770.58
2022-09-30T21:59:19.719Z,98768.98
2022-09-30T22:01:48.945Z,98770.23
2022-09-30T22:04:17.599Z,98765.27
2022-09-30T22:06:48.067Z,98765.63
2022-09-30T22:09:16.967Z,98765.25
2022-09-30T22:11:44.911Z,98764.35
2022-09-30T22:14:12.842Z,98766.83
2022-09-30T22:16:42.092Z,98771.80
2022-09-30T22:19:15.744Z,98774.02
2022-09-30T22:21:43.651Z,98776.95
2022-09-30T22:24:11.742Z,98780.70
2022-09-30T22:26:42.337Z,98779.44
2022-09-30T22:29:12.733Z,98777.65
2022-09-30T22:31:40.712Z,98775.86
2022-09-30T22:34:33.893Z,98780.27
2022-09-30T22:37:21.485Z,98782.18
2022-09-30T22:39:49.139Z,98781.21
2022-09-30T22:42:19.098Z,98781.75
2022-09-30T22:44:49.521Z,98781.86
2022-09-30T22:47:17.431Z,98780.78
2022-09-30T22:49:48.019Z,98783.52
2022-09-30T22:52:16.192Z,98778.50
2022-09-30T22:54:45.796Z,98776.13
2022-09-30T22:57:13.779Z,98780.29
2022-09-30T22:59:44.357Z,98786.98
2022-09-30T23:02:12.322Z,98789.64
2022-09-30T23:04:42.537Z,98794.29
2022-09-30T23:07:11.872Z,98790.96
2022-09-30T23:09:41.060Z,98783.69
2022-09-30T23:12:10.765Z,98783.37
2022-09-30T23:14:40.094Z,98787.39
2022-09-30T23:17:08.063Z,98786.88
2022-09-30T23:19:37.257Z,98794.30
2022-09-30T23:22:06.166Z,98792.54
2022-09-30T23:24:34.189Z,98791.23
2022-09-30T23:27:03.522Z,98791.04
2022-09-30T23:29:32.688Z,98788.00
2022-09-30T23:32:00.889Z,98790.44
2022-09-30T23:34:32.530Z,98795.17
2022-09-30T23:37:01.503Z,98791.67
2022-09-30T23:39:32.136Z,98793.35
2022-09-30T23:42:00.055Z,98787.87
2022-09-30T23:44:28.692Z,98788.84
2022-09-30T23:47:16.163Z,98786.75
2022-09-30T23:49:43.920Z,98793.55
2022-09-30T23:52:15.054Z,98797.20
2022-09-30T23:54:44.591Z,98798.56
2022-09-30T23:57:13.879Z,98796.52
2022-09-30T23:59:41.714Z,98799.48
